createdAt,value
2022-11-30T00:01:21.113Z,7.10
2022-11-30T00:03:48.803Z,7.10
2022-11-30T00:06:22.928Z,7.10
2022-11-30T00:08:54.197Z,7.10
2022-11-30T00:11:21.995Z,7.10
2022-11-30T00:13:49.174Z,7.00
2022-11-30T00:16:16.216Z,7.00
2022-11-30T00:18:43.133Z,7.00
2022-11-30T00:21:12.942Z,7.00
2022-11-30T00:23:41.833Z,7.10
2022-11-30T00:26:11.321Z,7.10
2022-11-30T00:28:39.344Z,7.00
2022-11-30T00:31:12.710Z,7.00
2022-11-30T00:33:40.890Z,7.00
2022-11-30T00:36:12.153Z,7.00
2022-11-30T00:38:39.836Z,7.00
2022-11-30T00:41:07.088Z,7.00
2022-11-30T00:43:34.201Z,7.00
2022-11-30T00:46:03.640Z,7.00
2022-11-30T00:48:30.731Z,7.10
2022-11-30T00:50:57.861Z,7.10
2022-11-30T00:53:24.718Z,7.10
2022-11-30T00:55:51.481Z,7.10
2022-11-30T00:58:18.562Z,7.00
2022-11-30T01:00:45.284Z,7.00
2022-11-30T01:03:12.854Z,7.00
2022-11-30T01:05:40.122Z,7.10
2022-11-30T01:08:12.318Z,7.00
2022-11-30T01:10:42.999Z,7.00
2022-11-30T01:13:14.422Z,7.10
2022-11-30T01:15:43.927Z,7.10
2022-11-30T01:18:14.255Z,7.10
2022-11-30T01:20:42.848Z,7.10
2022-11-30T01:23:10.501Z,7.10
2022-11-30T01:25:37.762Z,7.10
2022-11-30T01:28:04.822Z,7.10
2022-11-30T01:30:31.728Z,7.10
2022-11-30T01:33:05.018Z,7.10
2022-11-30T01:35:31.877Z,7.10
2022-11-30T01:37:58.767Z,7.00
2022-11-30T01:40:25.545Z,7.00
2022-11-30T01:42:52.555Z,7.00
2022-11-30T01:45:19.322Z,7.00
2022-11-30T01:47:52.959Z,7.00
2022-11-30T01:50:34.544Z,7.00
2022-11-30T01:53:02.878Z,7.00
2022-11-30T01:55:37.111Z,7.00
2022-11-30T01:58:12.164Z,7.00
2022-11-30T02:00:41.666Z,7.00
2022-11-30T02:03:24.703Z,7.00
2022-11-30T02:05:51.547Z,7.00
2022-11-30T02:08:19.438Z,7.00
2022-11-30T02:10:53.282Z,7.00
2022-11-30T02:13:38.702Z,7.00
2022-11-30T02:16:24.271Z,7.00
2022-11-30T02:19:10.101Z,7.00
2022-11-30T02:21:42.843Z,7.00
2022-11-30T02:24:40.553Z,7.00
2022-11-30T02:27:19.350Z,7.00
2022-11-30T02:29:49.653Z,7.10
2022-11-30T02:32:34.494Z,7.10
2022-11-30T02:35:04.166Z,7.10
2022-11-30T02:37:32.010Z,7.10
2022-11-30T02:39:58.808Z,7.10
2022-11-30T02:42:25.760Z,7.10
2022-11-30T02:44:53.133Z,7.10
2022-11-30T02:47:41.969Z,7.10
2022-11-30T02:50:18.724Z,7.10
2022-11-30T02:52:46.781Z,7.20
2022-11-30T02:55:17.393Z,7.20
2022-11-30T02:57:44.235Z,7.10
2022-11-30T03:00:12.757Z,7.10
2022-11-30T03:02:40.718Z,7.10
2022-11-30T03:05:08.797Z,7.00
2022-11-30T03:07:35.730Z,7.00
2022-11-30T03:10:02.518Z,7.00
2022-11-30T03:12:29.669Z,7.00
2022-11-30T03:14:56.473Z,7.00
2022-11-30T03:17:23.459Z,6.90
2022-11-30T03:19:50.317Z,6.90
2022-11-30T03:22:17.013Z,6.90
2022-11-30T03:24:44.292Z,6.90
2022-11-30T03:27:12.342Z,6.90
2022-11-30T03:29:39.409Z,6.90
2022-11-30T03:32:06.736Z,6.80
2022-11-30T03:34:33.784Z,6.90
2022-11-30T03:37:00.709Z,6.80
2022-11-30T03:39:27.482Z,6.80
2022-11-30T03:41:54.273Z,6.80
2022-11-30T03:44:21.288Z,6.80
2022-11-30T03:46:48.280Z,6.80
2022-11-30T03:49:15.230Z,6.80
2022-11-30T03:51:42.038Z,6.80
2022-11-30T03:54:08.837Z,6.80
2022-11-30T03:56:35.692Z,6.80
2022-11-30T03:59:02.540Z,6.80
2022-11-30T04:01:29.465Z,6.80
2022-11-30T04:03:56.290Z,6.80
2022-11-30T04:06:23.091Z,6.80
2022-11-30T04:08:50.101Z,6.80
2022-11-30T04:11:17.254Z,6.90
2022-11-30T04:13:46.030Z,6.80
2022-11-30T04:16:12.841Z,6.90
2022-11-30T04:18:39.733Z,6.80
2022-11-30T04:21:07.516Z,6.80
2022-11-30T04:23:36.769Z,6.80
2022-11-30T04:26:05.340Z,6.80
2022-11-30T04:28:32.493Z,6.80
2022-11-30T04:31:00.924Z,6.80
2022-11-30T04:33:28.495Z,6.80
2022-11-30T04:35:58.154Z,6.80
2022-11-30T04:38:25.621Z,6.80
2022-11-30T04:40:53.794Z,6.80
2022-11-30T04:43:21.730Z,6.80
2022-11-30T04:45:49.323Z,6.90
2022-11-30T04:48:19.410Z,6.80
2022-11-30T04:50:46.222Z,6.90
2022-11-30T04:53:13.006Z,6.90
2022-11-30T04:55:39.874Z,6.90
2022-11-30T04:58:07.323Z,6.90
2022-11-30T05:00:34.832Z,6.90
2022-11-30T05:03:02.144Z,7.00
2022-11-30T05:05:28.894Z,7.00
2022-11-30T05:07:57.724Z,7.00
2022-11-30T05:10:24.923Z,7.10
2022-11-30T05:12:51.951Z,7.10
2022-11-30T05:15:18.736Z,7.00
2022-11-30T05:17:45.623Z,7.00
2022-11-30T05:20:12.687Z,7.00
2022-11-30T05:22:39.646Z,7.00
2022-11-30T05:25:07.035Z,7.00
2022-11-30T05:27:35.405Z,7.00
2022-11-30T05:30:02.534Z,7.00
2022-11-30T05:32:29.499Z,7.10
2022-11-30T05:34:56.420Z,7.10
2022-11-30T05:37:23.375Z,7.10
2022-11-30T05:39:50.085Z,7.10
2022-11-30T05:42:18.588Z,7.10
2022-11-30T05:44:46.006Z,7.10
2022-11-30T05:47:13.171Z,7.10
2022-11-30T05:49:40.257Z,7.10
2022-11-30T05:52:07.101Z,7.10
2022-11-30T05:54:35.217Z,7.10
2022-11-30T05:57:02.271Z,7.10
2022-11-30T05:59:29.279Z,7.10
2022-11-30T06:01:56.277Z,7.10
2022-11-30T06:04:23.232Z,7.10
2022-11-30T06:06:52.316Z,7.10
2022-11-30T06:09:19.124Z,7.10
2022-11-30T06:11:45.921Z,7.20
2022-11-30T06:14:12.902Z,7.20
2022-11-30T06:16:39.989Z,7.20
2022-11-30T06:19:07.233Z,7.20
2022-11-30T06:21:34.494Z,7.20
2022-11-30T06:24:01.426Z,7.20
2022-11-30T06:26:28.214Z,7.20
2022-11-30T06:28:55.122Z,7.20
2022-11-30T06:31:21.832Z,7.20
2022-11-30T06:33:49.070Z,7.20
2022-11-30T06:36:22.769Z,7.20
2022-11-30T06:38:49.932Z,7.20
2022-11-30T06:41:16.994Z,7.20
2022-11-30T06:43:43.812Z,7.20
2022-11-30T06:46:11.273Z,7.20
2022-11-30T06:48:38.192Z,7.20
2022-11-30T06:51:06.719Z,7.20
2022-11-30T06:53:33.592Z,7.20
2022-11-30T06:56:09.627Z,7.20
2022-11-30T06:58:41.597Z,7.20
2022-11-30T07:01:13.714Z,7.20
2022-11-30T07:03:41.566Z,7.20
2022-11-30T07:06:13.777Z,7.20
2022-11-30T07:08:42.058Z,7.20
2022-11-30T07:11:10.668Z,7.20
2022-11-30T07:13:37.955Z,7.20
2022-11-30T07:16:07.103Z,7.20
2022-11-30T07:18:34.904Z,7.20
2022-11-30T07:21:07.674Z,7.30
2022-11-30T07:23:56.768Z,7.30
2022-11-30T07:26:25.238Z,7.30
2022-11-30T07:28:55.164Z,7.30
2022-11-30T07:31:35.906Z,7.40
2022-11-30T07:34:10.566Z,7.40
2022-11-30T07:36:37.758Z,7.40
2022-11-30T07:39:04.978Z,7.40
2022-11-30T07:41:31.822Z,7.50
2022-11-30T07:44:04.864Z,7.40
2022-11-30T07:46:33.583Z,7.40
2022-11-30T07:49:00.413Z,7.40
2022-11-30T07:51:27.198Z,7.50
2022-11-30T07:53:56.656Z,7.50
2022-11-30T07:56:24.084Z,7.60
2022-11-30T07:58:54.609Z,7.60
2022-11-30T08:01:23.296Z,7.60
2022-11-30T08:03:51.448Z,7.70
2022-11-30T08:06:21.087Z,7.70
2022-11-30T08:08:49.680Z,7.70
2022-11-30T08:11:19.293Z,7.80
2022-11-30T08:13:46.166Z,7.80
2022-11-30T08:16:17.905Z,7.90
2022-11-30T08:18:46.055Z,8.00
2022-11-30T08:21:18.853Z,7.90
2022-11-30T08:23:51.583Z,7.90
2022-11-30T08:26:21.448Z,8.00
2022-11-30T08:28:51.626Z,8.00
2022-11-30T08:36:56.277Z,7.90
2022-11-30T08:39:23.793Z,8.00
2022-11-30T08:41:52.016Z,8.00
2022-11-30T08:44:18.967Z,8.00
2022-11-30T08:46:53.072Z,8.00
2022-11-30T08:54:55.310Z,8.00
2022-11-30T08:57:29.291Z,8.00
2022-11-30T08:59:56.078Z,8.00
2022-11-30T09:02:25.282Z,8.10
2022-11-30T09:04:53.523Z,8.10
2022-11-30T09:07:20.386Z,8.10
2022-11-30T09:09:47.374Z,8.20
2022-11-30T09:12:14.378Z,8.20
2022-11-30T09:14:41.439Z,8.20
2022-11-30T09:17:08.651Z,8.30
2022-11-30T09:19:36.511Z,8.40
2022-11-30T09:22:03.408Z,8.40
2022-11-30T09:24:30.253Z,8.30
2022-11-30T09:26:57.602Z,8.30
2022-11-30T09:29:25.667Z,8.30
2022-11-30T09:31:52.767Z,8.30
2022-11-30T09:34:19.651Z,8.30
2022-11-30T09:36:47.589Z,8.30
2022-11-30T09:39:19.067Z,8.20
2022-11-30T09:42:06.755Z,8.20
2022-11-30T09:44:51.024Z,8.20
2022-11-30T09:47:37.713Z,8.20
2022-11-30T09:50:12.494Z,8.20
2022-11-30T09:52:46.809Z,8.20
2022-11-30T09:55:23.750Z,8.20
2022-11-30T09:57:55.267Z,8.30
2022-11-30T10:00:24.118Z,8.20
2022-11-30T10:02:53.711Z,8.10
2022-11-30T10:05:47.926Z,8.10
2022-11-30T10:08:35.491Z,8.10
2022-11-30T10:11:18.879Z,8.10
2022-11-30T10:14:23.385Z,8.20
2022-11-30T10:17:05.639Z,8.20
2022-11-30T10:19:46.172Z,8.10
2022-11-30T10:22:21.854Z,8.10
2022-11-30T10:25:11.889Z,8.10
2022-11-30T10:28:12.674Z,8.10
2022-11-30T10:30:49.518Z,8.10
2022-11-30T10:33:20.191Z,8.10
2022-11-30T10:35:51.694Z,8.10
2022-11-30T10:38:25.475Z,8.20
2022-11-30T10:41:14.607Z,8.30
2022-11-30T10:44:16.701Z,8.30
2022-11-30T10:46:53.051Z,8.30
2022-11-30T10:49:20.676Z,8.30
2022-11-30T10:51:53.785Z,8.30
2022-11-30T10:54:22.614Z,8.40
2022-11-30T10:56:49.874Z,8.40
2022-11-30T10:59:33.208Z,8.40
2022-11-30T11:02:00.088Z,8.40
2022-11-30T11:04:27.871Z,8.40
2022-11-30T11:06:58.679Z,8.40
2022-11-30T11:10:01.704Z,8.50
2022-11-30T11:12:30.956Z,8.60
2022-11-30T11:15:15.129Z,8.70
2022-11-30T11:17:41.919Z,8.70
2022-11-30T11:20:28.654Z,8.80
2022-11-30T11:22:55.482Z,8.80
2022-11-30T11:25:24.735Z,8.80
2022-11-30T11:27:59.535Z,8.80
2022-11-30T11:30:26.214Z,8.70
2022-11-30T11:33:18.948Z,8.60
2022-11-30T11:35:47.217Z,8.60
2022-11-30T11:38:28.237Z,8.60
2022-11-30T11:41:01.256Z,8.60
2022-11-30T11:43:31.438Z,8.60
2022-11-30T11:46:02.977Z,8.60
2022-11-30T11:48:38.012Z,8.60
2022-11-30T11:51:08.402Z,8.60
2022-11-30T11:53:53.078Z,8.70
2022-11-30T11:56:25.087Z,8.70
2022-11-30T11:58:54.965Z,8.80
2022-11-30T12:01:47.503Z,8.90
2022-11-30T12:04:52.972Z,9.00
2022-11-30T12:07:27.294Z,9.10
2022-11-30T12:09:56.565Z,9.20
2022-11-30T12:12:23.448Z,9.30
2022-11-30T12:14:50.256Z,9.30
2022-11-30T12:17:34.468Z,9.40
2022-11-30T12:20:17.495Z,9.40
2022-11-30T12:23:05.063Z,9.40
2022-11-30T12:25:41.036Z,9.40
2022-11-30T12:28:56.182Z,9.40
2022-11-30T12:31:30.972Z,9.30
2022-11-30T12:34:17.334Z,9.30
2022-11-30T12:37:06.247Z,9.20
2022-11-30T12:39:41.857Z,9.20
2022-11-30T12:42:25.494Z,9.10
2022-11-30T12:45:25.307Z,9.00
2022-11-30T12:48:01.139Z,9.00
2022-11-30T12:50:46.858Z,9.00
2022-11-30T12:53:29.658Z,9.00
2022-11-30T12:56:19.394Z,9.00
2022-11-30T12:59:15.528Z,9.10
2022-11-30T13:02:07.384Z,9.30
2022-11-30T13:04:53.372Z,9.40
2022-11-30T13:07:32.346Z,9.40
2022-11-30T13:10:04.075Z,9.40
2022-11-30T13:12:38.990Z,9.30
2022-11-30T13:15:15.745Z,9.30
2022-11-30T13:17:45.353Z,9.30
2022-11-30T13:20:14.315Z,9.30
2022-11-30T13:22:48.240Z,9.20
2022-11-30T13:26:07.274Z,9.30
2022-11-30T13:28:46.844Z,9.40
2022-11-30T13:31:27.702Z,9.40
2022-11-30T13:33:54.493Z,9.40
2022-11-30T13:36:40.235Z,9.40
2022-11-30T13:39:21.346Z,9.30
2022-11-30T13:42:00.451Z,9.20
2022-11-30T13:44:32.582Z,9.20
2022-11-30T13:47:24.117Z,9.20
2022-11-30T13:49:56.724Z,9.10
2022-11-30T13:52:58.131Z,9.00
2022-11-30T13:55:43.300Z,9.00
2022-11-30T13:58:12.243Z,8.90
2022-11-30T14:00:40.568Z,8.90
2022-11-30T14:03:22.815Z,8.90
2022-11-30T14:05:56.991Z,8.90
2022-11-30T14:08:23.775Z,8.90
2022-11-30T14:10:51.741Z,8.90
2022-11-30T14:13:22.753Z,8.90
2022-11-30T14:15:57.082Z,8.90
2022-11-30T14:18:31.433Z,8.90
2022-11-30T14:21:12.907Z,8.80
2022-11-30T14:23:39.762Z,8.80
2022-11-30T14:26:13.622Z,8.80
2022-11-30T14:28:54.280Z,8.80
2022-11-30T14:31:25.210Z,8.80
2022-11-30T14:33:57.618Z,8.80
2022-11-30T14:36:32.959Z,8.70
2022-11-30T14:38:59.736Z,8.70
2022-11-30T14:41:28.836Z,8.60
2022-11-30T14:44:00.761Z,8.60
2022-11-30T14:46:27.864Z,8.60
2022-11-30T14:49:22.186Z,8.60
2022-11-30T14:52:00.749Z,8.50
2022-11-30T14:55:06.558Z,8.50
2022-11-30T14:58:04.008Z,8.50
2022-11-30T15:00:39.647Z,8.40
2022-11-30T15:03:40.238Z,8.40
2022-11-30T15:06:08.305Z,8.40
2022-11-30T15:08:42.693Z,8.40
2022-11-30T15:11:12.648Z,8.30
2022-11-30T15:13:42.970Z,8.30
2022-11-30T15:16:20.860Z,8.30
2022-11-30T15:18:48.830Z,8.30
2022-11-30T15:21:27.894Z,8.20
2022-11-30T15:23:56.878Z,8.20
2022-11-30T15:26:50.014Z,8.20
2022-11-30T15:29:19.996Z,8.20
2022-11-30T15:31:49.775Z,8.20
2022-11-30T15:34:25.934Z,8.20
2022-11-30T15:36:58.374Z,8.20
2022-11-30T15:39:27.696Z,8.30
2022-11-30T15:42:02.901Z,8.20
2022-11-30T15:44:40.264Z,8.20
2022-11-30T15:47:38.067Z,8.20
2022-11-30T15:50:26.733Z,8.20
2022-11-30T15:52:58.003Z,8.20
2022-11-30T15:55:47.468Z,8.10
2022-11-30T15:58:28.036Z,8.10
2022-11-30T16:01:20.561Z,8.10
2022-11-30T16:03:57.976Z,8.10
2022-11-30T16:06:34.636Z,8.10
2022-11-30T16:09:06.578Z,8.10
2022-11-30T16:11:34.562Z,8.10
2022-11-30T16:14:01.606Z,8.10
2022-11-30T16:16:31.407Z,8.00
2022-11-30T16:18:58.410Z,8.10
2022-11-30T16:21:25.327Z,8.10
2022-11-30T16:23:52.426Z,8.00
2022-11-30T16:29:06.617Z,8.00
2022-11-30T16:31:35.141Z,8.00
2022-11-30T16:34:02.055Z,8.00
2022-11-30T16:36:30.239Z,8.00
2022-11-30T16:38:57.897Z,7.90
2022-11-30T16:41:27.112Z,7.90
2022-11-30T16:43:56.219Z,7.90
2022-11-30T16:46:25.562Z,7.90
2022-11-30T16:48:52.619Z,7.90
2022-11-30T16:51:28.666Z,7.90
2022-11-30T16:53:55.763Z,7.90
2022-11-30T16:56:23.122Z,7.90
2022-11-30T16:58:49.996Z,7.90
2022-11-30T17:01:43.100Z,7.90
2022-11-30T17:04:29.582Z,7.90
2022-11-30T17:07:02.209Z,7.90
2022-11-30T17:09:30.321Z,7.90
2022-11-30T17:11:57.257Z,7.90
2022-11-30T17:14:24.123Z,7.90
2022-11-30T17:16:50.974Z,7.90
2022-11-30T17:19:18.706Z,7.90
2022-11-30T17:21:45.795Z,7.90
2022-11-30T17:24:12.822Z,7.90
2022-11-30T17:26:39.525Z,7.90
2022-11-30T17:29:06.616Z,7.90
2022-11-30T17:31:33.444Z,7.90
2022-11-30T17:34:00.542Z,7.90
2022-11-30T17:36:29.228Z,7.90
2022-11-30T17:38:56.691Z,7.90
2022-11-30T17:41:23.831Z,7.90
2022-11-30T17:43:52.057Z,7.90
2022-11-30T17:46:21.115Z,7.90
2022-11-30T17:48:49.304Z,7.90
2022-11-30T17:51:16.619Z,7.90
2022-11-30T17:53:44.422Z,7.90
2022-11-30T17:56:16.298Z,7.90
2022-11-30T17:58:44.759Z,7.90
2022-11-30T18:01:26.348Z,7.90
2022-11-30T18:03:54.032Z,7.80
2022-11-30T18:06:21.103Z,7.90
2022-11-30T18:08:47.891Z,7.80
2022-11-30T18:11:21.517Z,7.80
2022-11-30T18:13:51.512Z,7.90
2022-11-30T18:16:20.623Z,7.90
2022-11-30T18:18:48.611Z,7.80
2022-11-30T18:21:18.373Z,7.80
2022-11-30T18:23:45.644Z,7.90
2022-11-30T18:26:14.773Z,7.90
2022-11-30T18:28:41.944Z,7.90
2022-11-30T18:31:09.320Z,7.90
2022-11-30T18:33:38.224Z,7.80
2022-11-30T18:36:07.628Z,7.80
2022-11-30T18:38:37.884Z,7.90
2022-11-30T18:41:06.178Z,7.90
2022-11-30T18:43:33.965Z,8.00
2022-11-30T18:46:19.033Z,8.00
2022-11-30T18:48:49.759Z,8.00
2022-11-30T18:51:19.735Z,8.00
2022-11-30T18:53:49.180Z,8.00
2022-11-30T18:56:20.612Z,8.00
2022-11-30T18:58:48.297Z,7.90
2022-11-30T19:01:18.137Z,7.90
2022-11-30T19:03:59.630Z,7.80
2022-11-30T19:06:32.599Z,7.80
2022-11-30T19:09:10.793Z,7.80
2022-11-30T19:11:41.354Z,7.70
2022-11-30T19:14:08.652Z,7.70
2022-11-30T19:16:35.756Z,7.70
2022-11-30T19:19:06.063Z,7.60
2022-11-30T19:21:33.401Z,7.60
2022-11-30T19:24:01.043Z,7.60
2022-11-30T19:26:28.505Z,7.70
2022-11-30T19:28:57.590Z,7.60
2022-11-30T19:31:25.416Z,7.60
2022-11-30T19:33:54.521Z,7.70
2022-11-30T19:36:27.481Z,7.70
2022-11-30T19:38:55.258Z,7.60
2022-11-30T19:41:22.481Z,7.60
2022-11-30T19:44:01.080Z,7.60
2022-11-30T19:46:31.851Z,7.70
2022-11-30T19:49:00.752Z,7.60
2022-11-30T19:51:28.816Z,7.60
2022-11-30T19:53:57.502Z,7.60
2022-11-30T19:56:25.662Z,7.60
2022-11-30T19:58:53.132Z,7.60
2022-11-30T20:01:24.657Z,7.60
2022-11-30T20:03:52.967Z,7.50
2022-11-30T20:06:20.704Z,7.50
2022-11-30T20:08:47.778Z,7.50
2022-11-30T20:11:15.358Z,7.50
2022-11-30T20:13:43.652Z,7.40
2022-11-30T20:16:15.602Z,7.40
2022-11-30T20:18:46.280Z,7.40
2022-11-30T20:21:22.489Z,7.40
2022-11-30T20:23:50.133Z,7.40
2022-11-30T20:26:30.084Z,7.40
2022-11-30T20:28:58.533Z,7.40
2022-11-30T20:31:26.792Z,7.40
2022-11-30T20:33:54.182Z,7.40
2022-11-30T20:36:21.726Z,7.40
2022-11-30T20:38:48.929Z,7.40
2022-11-30T20:41:23.763Z,7.40
2022-11-30T20:43:50.927Z,7.30
2022-11-30T20:46:21.210Z,7.30
2022-11-30T20:48:48.597Z,7.30
2022-11-30T20:51:33.676Z,7.30
2022-11-30T20:54:03.622Z,7.40
2022-11-30T20:56:30.663Z,7.40
2022-11-30T20:59:00.371Z,7.40
2022-11-30T21:01:27.343Z,7.30
2022-11-30T21:03:54.606Z,7.30
2022-11-30T21:06:21.439Z,7.30
2022-11-30T21:08:48.344Z,7.30
2022-11-30T21:11:18.255Z,7.20
2022-11-30T21:13:47.020Z,7.20
2022-11-30T21:16:15.984Z,7.20
2022-11-30T21:18:44.881Z,7.10
2022-11-30T21:21:23.443Z,7.10
2022-11-30T21:23:51.036Z,7.10
2022-11-30T21:26:26.160Z,7.00
2022-11-30T21:28:55.875Z,7.00
